Time;durP1;ratioP1;P1;durP2;ratioP2;P2;SDS_P1;SDS_P2;PMS_P1;PMS_P2;Temp;Humidity;BMP_temperature;BMP_pressure;BME280_temperature;BME280_humidity;BME280_pressure;Samples;Min_cycle;Max_cycle;Signal;HPM_P1;HPM_P2
2022/01/24 00:01:25;;;;;;;3.78;3.17;;;10.60;70.40;;;;;;6158782;23;20044;-76
2022/01/24 00:03:56;;;;;;;3.63;3.15;;;10.70;70.50;;;;;;6158220;23;20056;-77
2022/01/24 00:06:23;;;;;;;4.15;3.17;;;10.70;70.40;;;;;;6159280;23;20021;-77
2022/01/24 00:08:49;;;;;;;5.78;3.70;;;10.70;70.40;;;;;;6159144;23;20017;-76
2022/01/24 00:11:19;;;;;;;4.57;3.53;;;10.60;70.40;;;;;;6159160;23;20080;-76
2022/01/24 00:16:48;;;;;;;4.40;3.40;;;10.60;70.40;;;;;;6158596;23;20017;-77
2022/01/24 00:27:21;;;;;;;4.60;3.45;;;10.60;70.40;;;;;;6158563;23;20412;-75
2022/01/24 00:29:47;;;;;;;4.32;3.45;;;10.60;70.40;;;;;;6158907;23;20299;-76
2022/01/24 00:32:13;;;;;;;5.13;3.22;;;10.60;70.40;;;;;;6157841;23;20022;-76
2022/01/24 00:34:39;;;;;;;3.75;3.05;;;10.60;70.40;;;;;;6159878;23;20021;-76
2022/01/24 00:37:05;;;;;;;3.58;2.70;;;10.70;70.50;;;;;;6157737;23;20013;-76
2022/01/24 00:39:31;;;;;;;3.83;2.97;;;10.60;70.40;;;;;;6157374;23;20033;-76
2022/01/24 00:42:19;;;;;;;3.80;2.75;;;10.60;70.40;;;;;;6157183;23;20029;-77
2022/01/24 00:45:04;;;;;;;4.78;3.33;;;10.60;70.40;;;;;;6158497;23;20088;-77
2022/01/24 00:47:46;;;;;;;3.78;3.05;;;10.60;70.30;;;;;;6158735;23;20018;-76
2022/01/24 00:53:14;;;;;;;3.63;2.80;;;10.60;70.90;;;;;;6157564;23;20025;-77
2022/01/24 00:55:40;;;;;;;3.67;2.83;;;10.60;70.30;;;;;;6133296;23;20055;-77
2022/01/24 00:58:06;;;;;;;3.42;2.80;;;10.60;70.30;;;;;;6157203;23;20256;-75
2022/01/24 01:00:32;;;;;;;4.32;3.25;;;10.60;70.30;;;;;;6157831;23;20022;-75
2022/01/24 01:02:57;;;;;;;4.22;3.00;;;10.60;70.40;;;;;;6157462;23;20293;-76
2022/01/24 01:06:23;;;;;;;4.13;2.85;;;10.60;70.40;;;;;;6159403;23;20018;-76
2022/01/24 01:18:58;;;;;;;3.28;2.60;;;10.60;70.40;;;;;;6158877;23;20371;-76
2022/01/24 01:21:24;;;;;;;3.47;2.83;;;10.60;70.40;;;;;;6159307;23;20076;-77
2022/01/24 01:23:56;;;;;;;4.05;2.95;;;10.60;70.40;;;;;;6158593;23;20033;-75
2022/01/24 01:28:55;;;;;;;3.00;2.63;;;10.60;70.40;;;;;;6159469;23;20304;-76
2022/01/24 01:31:32;;;;;;;3.80;2.70;;;10.60;70.40;;;;;;6158907;23;20284;-76
2022/01/24 01:34:14;;;;;;;3.90;3.00;;;10.60;70.50;;;;;;6158674;23;20057;-76
2022/01/24 01:55:39;;;;;;;3.38;2.72;;;10.60;70.30;;;;;;6156789;23;20316;-76
2022/01/24 01:58:06;;;;;;;3.42;2.60;;;10.60;70.30;;;;;;6158817;23;20025;-75
2022/01/24 02:00:34;;;;;;;3.10;2.50;;;10.60;70.40;;;;;;6158052;23;20026;-76
2022/01/24 02:03:00;;;;;;;3.08;2.60;;;10.60;70.40;;;;;;6156434;23;20028;-77
2022/01/24 02:05:26;;;;;;;3.50;2.63;;;10.60;70.40;;;;;;6157437;23;20299;-77
2022/01/24 02:07:53;;;;;;;3.33;2.53;;;10.60;70.40;;;;;;6156637;23;20017;-77
2022/01/24 02:10:21;;;;;;;3.70;2.80;;;10.60;70.40;;;;;;6156952;23;20040;-75
2022/01/24 02:12:49;;;;;;;4.38;2.63;;;10.60;70.30;;;;;;6157715;23;20022;-76
2022/01/24 02:15:21;;;;;;;2.65;2.35;;;10.60;70.40;;;;;;6157949;23;20021;-76
2022/01/24 02:25:45;;;;;;;3.33;2.45;;;10.60;70.30;;;;;;6158059;23;20033;-77
2022/01/24 02:28:13;;;;;;;2.92;2.45;;;10.60;70.30;;;;;;6158304;23;20021;-75
2022/01/24 02:33:23;;;;;;;3.38;2.50;;;10.60;70.30;;;;;;6157631;23;20340;-77
2022/01/24 02:35:50;;;;;;;3.63;2.90;;;10.60;70.30;;;;;;6157052;23;20032;-76
2022/01/24 02:46:00;;;;;;;2.85;2.30;;;10.60;70.30;;;;;;6157818;23;20025;-77
2022/01/24 02:48:59;;;;;;;2.92;2.40;;;10.60;70.30;;;;;;6158155;23;20021;-76
2022/01/24 02:51:46;;;;;;;3.22;2.33;;;10.60;70.30;;;;;;6157847;23;20277;-75
2022/01/24 02:54:22;;;;;;;2.80;2.45;;;10.60;70.30;;;;;;6158762;23;20359;-75
2022/01/24 02:56:48;;;;;;;2.80;2.30;;;10.60;70.30;;;;;;6157461;23;20420;-75
2022/01/24 02:59:14;;;;;;;2.80;2.40;;;10.60;70.30;;;;;;6157283;23;20032;-78
2022/01/24 03:01:41;;;;;;;3.03;2.38;;;10.60;70.30;;;;;;6157867;23;20289;-76
2022/01/24 03:04:08;;;;;;;4.90;3.25;;;10.60;70.90;;;;;;6156865;23;20021;-78
2022/01/24 03:06:33;;;;;;;3.50;2.55;;;10.60;70.20;;;;;;6157487;23;20025;-76
2022/01/24 03:08:59;;;;;;;3.20;2.50;;;10.60;70.30;;;;;;6159480;23;20447;-77
2022/01/24 03:11:27;;;;;;;3.65;2.38;;;10.60;70.20;;;;;;6160538;23;20018;-77
2022/01/24 03:13:53;;;;;;;2.88;2.58;;;10.60;70.30;;;;;;6160035;23;20018;-77
2022/01/24 03:16:19;;;;;;;3.70;2.60;;;10.60;70.20;;;;;;6158836;23;20093;-76
2022/01/24 03:18:45;;;;;;;3.35;2.80;;;10.60;70.20;;;;;;6159512;23;20415;-78
2022/01/24 03:21:10;;;;;;;3.53;2.60;;;10.60;70.20;;;;;;6159233;23;20064;-77
2022/01/24 03:23:36;;;;;;;2.95;2.30;;;10.60;70.20;;;;;;6160443;23;20056;-76
2022/01/24 03:26:02;;;;;;;2.90;2.22;;;10.60;70.20;;;;;;6159115;23;20018;-76
2022/01/24 03:28:28;;;;;;;3.28;2.53;;;10.60;70.20;;;;;;6160031;23;20056;-75
2022/01/24 03:30:54;;;;;;;2.40;1.98;;;10.60;70.20;;;;;;6159159;23;20420;-75
2022/01/24 03:33:20;;;;;;;3.53;2.80;;;10.60;70.20;;;;;;6159849;23;20097;-75
2022/01/24 03:35:45;;;;;;;3.10;2.20;;;10.60;70.20;;;;;;6159563;23;20053;-77
2022/01/24 03:38:12;;;;;;;2.90;2.50;;;10.60;70.10;;;;;;6158610;23;20092;-77
2022/01/24 03:40:38;;;;;;;3.63;2.20;;;10.60;70.10;;;;;;6159010;23;20025;-78
2022/01/24 03:43:04;;;;;;;3.25;2.40;;;10.60;70.10;;;;;;6159514;23;20021;-76
2022/01/24 03:45:45;;;;;;;3.55;2.47;;;10.60;70.20;;;;;;6160152;23;20347;-75
2022/01/24 03:48:25;;;;;;;3.08;2.25;;;10.60;70.20;;;;;;6159421;23;20053;-76
2022/01/24 03:50:51;;;;;;;2.63;2.05;;;10.60;70.10;;;;;;6159314;23;20053;-77
2022/01/24 03:53:17;;;;;;;2.83;2.20;;;10.50;70.40;;;;;;6159313;23;20029;-77
2022/01/24 03:55:43;;;;;;;4.25;2.72;;;10.60;70.20;;;;;;6159734;23;20020;-77
2022/01/24 03:58:09;;;;;;;2.80;2.17;;;10.60;70.20;;;;;;6133647;23;20315;-76
2022/01/24 04:00:34;;;;;;;4.28;2.28;;;10.60;70.10;;;;;;6159252;23;20030;-76
2022/01/24 04:03:00;;;;;;;2.85;2.03;;;10.60;70.20;;;;;;6158287;23;20017;-77
2022/01/24 04:05:26;;;;;;;4.07;2.70;;;10.50;70.10;;;;;;6159343;23;20032;-75
2022/01/24 04:07:52;;;;;;;3.10;2.20;;;10.50;70.10;;;;;;6158945;23;20021;-75
2022/01/24 04:10:20;;;;;;;2.70;2.20;;;10.50;70.20;;;;;;6158339;23;20415;-75
2022/01/24 04:12:49;;;;;;;3.42;2.60;;;10.60;70.20;;;;;;6160214;23;20040;-76
2022/01/24 04:18:13;;;;;;;3.35;2.45;;;10.60;70.20;;;;;;6158595;23;20034;-75
2022/01/24 04:23:23;;;;;;;2.90;2.33;;;10.60;70.10;;;;;;6158025;23;20112;-78
2022/01/24 04:25:49;;;;;;;2.85;2.33;;;10.60;70.10;;;;;;6159348;23;20434;-77
2022/01/24 04:28:15;;;;;;;3.42;2.92;;;10.60;70.10;;;;;;6158585;23;20018;-77
2022/01/24 04:30:41;;;;;;;3.80;2.97;;;10.60;70.10;;;;;;6158524;23;20017;-76
2022/01/24 04:33:07;;;;;;;4.07;3.00;;;10.60;70.10;;;;;;6159643;23;20048;-77
2022/01/24 04:35:32;;;;;;;3.95;2.50;;;10.60;70.10;;;;;;6158617;23;20017;-76
2022/01/24 04:37:58;;;;;;;3.15;2.38;;;10.50;70.10;;;;;;6158035;23;20025;-77
2022/01/24 04:40:25;;;;;;;3.40;2.53;;;10.50;70.10;;;;;;6158906;23;20359;-77
2022/01/24 04:43:00;;;;;;;3.47;2.50;;;10.50;70.10;;;;;;6158931;23;20379;-76
2022/01/24 04:45:36;;;;;;;3.03;2.53;;;10.50;70.10;;;;;;6159065;23;20538;-77
2022/01/24 04:50:45;;;;;;;3.65;2.60;;;10.60;70.20;;;;;;6159383;23;20029;-76
2022/01/24 04:53:48;;;;;;;4.40;3.10;;;10.50;70.20;;;;;;6158330;23;20431;-77
2022/01/24 04:55:59;;;;;;;4.43;2.80;;;10.60;70.20;;;;;;6158012;23;20022;-77
2022/01/24 04:58:25;;;;;;;4.15;2.92;;;10.50;70.10;;;;;;6158559;23;20028;-77
2022/01/24 05:00:50;;;;;;;4.53;3.22;;;10.50;70.10;;;;;;6158667;23;20101;-77
2022/01/24 05:03:16;;;;;;;4.28;3.15;;;10.60;70.10;;;;;;6158609;23;20052;-76
2022/01/24 05:05:42;;;;;;;3.95;3.10;;;10.60;70.10;;;;;;6157673;23;20021;-75
2022/01/24 05:08:09;;;;;;;4.53;3.50;;;10.50;70.10;;;;;;6158596;23;20447;-77
2022/01/24 05:10:51;;;;;;;3.72;2.88;;;10.60;70.20;;;;;;6159055;23;20021;-76
2022/01/24 05:23:58;;;;;;;4.28;3.15;;;10.50;70.00;;;;;;6158473;23;20315;-77
2022/01/24 05:26:23;;;;;;;3.72;3.13;;;10.60;70.10;;;;;;6158411;23;20407;-75
2022/01/24 05:28:49;;;;;;;4.32;3.58;;;10.60;70.10;;;;;;6158644;23;20084;-75
2022/01/24 05:31:15;;;;;;;4.55;3.45;;;10.50;70.00;;;;;;6158083;23;20013;-76
2022/01/24 05:33:40;;;;;;;4.13;3.05;;;10.50;70.00;;;;;;6158533;23;20415;-76
2022/01/24 05:36:06;;;;;;;5.45;4.05;;;10.50;70.60;;;;;;6157451;23;20315;-77
2022/01/24 05:38:32;;;;;;;5.00;3.50;;;10.50;70.00;;;;;;6158378;23;20450;-76
2022/01/24 05:40:58;;;;;;;4.55;3.42;;;10.50;70.00;;;;;;6158259;23;20046;-76
2022/01/24 05:43:23;;;;;;;4.97;3.55;;;10.50;70.10;;;;;;6156656;23;20139;-75
2022/01/24 05:45:50;;;;;;;3.83;3.22;;;10.50;70.00;;;;;;6158285;23;20024;-75
2022/01/24 05:48:15;;;;;;;4.95;3.60;;;10.50;70.00;;;;;;6158337;23;20084;-77
2022/01/24 05:50:41;;;;;;;4.93;3.50;;;10.50;70.00;;;;;;6157761;23;20014;-77
2022/01/24 05:53:07;;;;;;;4.30;3.33;;;10.50;70.00;;;;;;6159238;23;20097;-75
2022/01/24 05:55:33;;;;;;;5.25;3.88;;;10.60;70.00;;;;;;6158168;23;20369;-75
2022/01/24 05:57:59;;;;;;;4.82;3.58;;;10.60;70.00;;;;;;6158755;23;20303;-75
2022/01/24 06:00:25;;;;;;;4.70;3.58;;;10.60;70.10;;;;;;6132165;23;20024;-77
2022/01/24 06:02:51;;;;;;;4.10;3.47;;;10.50;70.00;;;;;;6158002;23;20122;-75
2022/01/24 06:05:17;;;;;;;5.40;3.92;;;10.50;69.90;;;;;;6158777;23;20021;-76
2022/01/24 06:07:43;;;;;;;4.82;3.67;;;10.50;70.00;;;;;;6158052;23;20025;-76
2022/01/24 06:10:09;;;;;;;4.88;4.15;;;10.50;70.00;;;;;;6158711;23;20024;-76
2022/01/24 06:12:35;;;;;;;4.63;3.63;;;10.50;70.00;;;;;;6157247;23;20013;-76
2022/01/24 06:15:02;;;;;;;5.00;3.50;;;10.50;70.00;;;;;;6158562;23;20127;-75
2022/01/24 06:17:28;;;;;;;5.75;4.03;;;10.50;70.00;;;;;;6158450;23;20300;-77
2022/01/24 06:19:54;;;;;;;6.78;4.25;;;10.50;70.00;;;;;;6158353;23;20028;-76
2022/01/24 06:22:20;;;;;;;4.97;3.78;;;10.50;69.90;;;;;;6158032;23;20341;-75
2022/01/24 06:24:46;;;;;;;5.05;3.75;;;10.50;69.90;;;;;;6158212;23;20017;-77
2022/01/24 06:27:12;;;;;;;5.93;3.83;;;10.50;69.90;;;;;;6158499;23;20025;-78
2022/01/24 06:29:38;;;;;;;5.40;3.92;;;10.60;70.00;;;;;;6157169;23;20457;-77
2022/01/24 06:32:04;;;;;;;6.85;4.57;;;10.50;69.90;;;;;;6158228;23;20017;-75
2022/01/24 06:34:30;;;;;;;5.00;3.80;;;10.50;69.90;;;;;;6157914;23;20061;-76
2022/01/24 06:36:55;;;;;;;7.05;4.60;;;10.50;69.90;;;;;;6157855;23;20021;-75
2022/01/24 06:39:21;;;;;;;5.03;4.05;;;10.50;69.90;;;;;;6157506;23;20013;-76
2022/01/24 06:42:08;;;;;;;5.25;3.90;;;10.50;69.90;;;;;;6159435;23;20089;-76
2022/01/24 06:44:34;;;;;;;4.47;3.50;;;10.50;69.90;;;;;;6159915;23;20022;-76
2022/01/24 06:46:59;;;;;;;6.30;4.53;;;10.50;70.00;;;;;;6160193;23;20017;-76
2022/01/24 06:49:25;;;;;;;6.00;4.25;;;10.50;69.90;;;;;;6159992;23;20056;-77
2022/01/24 06:51:51;;;;;;;6.00;3.92;;;10.50;69.90;;;;;;6159682;23;20018;-77
2022/01/24 06:54:16;;;;;;;6.30;4.28;;;10.50;69.90;;;;;;6159916;23;20104;-77
2022/01/24 06:56:42;;;;;;;6.95;4.50;;;10.50;69.90;;;;;;6158777;23;20359;-77
2022/01/24 06:59:08;;;;;;;7.07;4.38;;;10.50;69.90;;;;;;6158815;23;20088;-75
2022/01/24 07:01:34;;;;;;;7.10;4.68;;;10.50;69.90;;;;;;6159894;23;20021;-77
2022/01/24 07:03:59;;;;;;;5.15;4.07;;;10.50;70.00;;;;;;6160037;23;20025;-75
2022/01/24 07:06:25;;;;;;;6.63;3.88;;;10.50;69.90;;;;;;6159708;23;20028;-77
2022/01/24 07:08:51;;;;;;;5.47;4.13;;;10.50;70.00;;;;;;6159677;23;20018;-76
2022/01/24 07:11:16;;;;;;;6.00;4.53;;;10.50;69.90;;;;;;6160226;23;20419;-75
2022/01/24 07:13:42;;;;;;;5.68;4.32;;;10.50;70.00;;;;;;6158772;23;20018;-75
2022/01/24 07:16:08;;;;;;;5.22;4.18;;;10.50;70.50;;;;;;6158983;23;20085;-75
2022/01/24 07:21:02;;;;;;;6.88;4.43;;;10.50;69.90;;;;;;6158431;23;20422;-75
2022/01/24 07:23:29;;;;;;;5.95;4.22;;;10.50;69.90;;;;;;6134857;23;20164;-77
2022/01/24 07:25:55;;;;;;;6.47;4.30;;;10.50;69.90;;;;;;6158868;23;20017;-76
2022/01/24 07:28:21;;;;;;;5.95;3.88;;;10.50;69.80;;;;;;6160104;23;20057;-77
2022/01/24 07:30:47;;;;;;;6.03;4.93;;;10.50;69.90;;;;;;6159117;23;20080;-77
2022/01/24 07:33:16;;;;;;;6.68;4.53;;;10.50;69.80;;;;;;6158288;23;20028;-76
2022/01/24 07:35:43;;;;;;;7.65;4.85;;;10.50;69.80;;;;;;6158370;23;20057;-76
2022/01/24 07:38:09;;;;;;;6.43;4.68;;;10.50;69.80;;;;;;6158390;23;20025;-77
2022/01/24 07:40:38;;;;;;;6.35;5.07;;;10.50;69.70;;;;;;6159398;23;20033;-75
2022/01/24 07:43:11;;;;;;;6.32;4.57;;;10.50;69.80;;;;;;6158657;23;20056;-75
2022/01/24 07:45:37;;;;;;;6.45;4.63;;;10.50;69.70;;;;;;6158647;23;20095;-75
2022/01/24 07:48:05;;;;;;;6.63;4.82;;;10.50;69.80;;;;;;6158452;23;20025;-78
2022/01/24 07:50:31;;;;;;;6.85;4.63;;;10.50;69.80;;;;;;6157725;23;20083;-77
2022/01/24 07:52:59;;;;;;;5.68;4.18;;;10.50;69.80;;;;;;6158658;23;20091;-75
2022/01/24 07:55:25;;;;;;;6.78;5.07;;;10.50;69.70;;;;;;6158447;23;20021;-75
2022/01/24 07:57:51;;;;;;;6.38;4.82;;;10.50;69.70;;;;;;6160048;23;20028;-77
2022/01/24 08:00:17;;;;;;;8.10;5.57;;;10.50;69.70;;;;;;6159216;23;20013;-77
2022/01/24 08:02:43;;;;;;;8.77;5.20;;;10.50;69.60;;;;;;6158769;23;20044;-74
2022/01/24 08:05:10;;;;;;;7.82;4.88;;;10.50;69.60;;;;;;6159701;23;20028;-75
2022/01/24 08:07:37;;;;;;;6.75;4.70;;;10.60;69.70;;;;;;6159189;23;20064;-77
2022/01/24 08:10:05;;;;;;;7.63;5.53;;;10.50;69.60;;;;;;6159565;23;20017;-76
2022/01/24 08:12:31;;;;;;;6.72;5.10;;;10.60;69.70;;;;;;6158372;23;20063;-76
2022/01/24 08:14:59;;;;;;;6.18;4.50;;;10.50;69.60;;;;;;6158244;23;20045;-75
2022/01/24 08:17:25;;;;;;;7.30;5.43;;;10.50;69.50;;;;;;6134292;23;20048;-77
2022/01/24 08:19:51;;;;;;;7.30;4.53;;;10.50;69.60;;;;;;6157946;23;20096;-76
2022/01/24 08:22:18;;;;;;;6.78;4.47;;;10.50;69.60;;;;;;6157574;23;20021;-78
2022/01/24 08:24:47;;;;;;;6.75;5.40;;;10.50;69.50;;;;;;6159103;23;20022;-76
2022/01/24 08:27:15;;;;;;;8.15;5.57;;;10.60;69.60;;;;;;6158062;23;20033;-78
2022/01/24 08:29:43;;;;;;;8.75;6.18;;;10.60;69.60;;;;;;6157544;23;20017;-76
2022/01/24 08:32:09;;;;;;;6.68;4.90;;;10.60;69.60;;;;;;6157713;23;20021;-76
2022/01/24 08:34:35;;;;;;;7.20;4.75;;;10.50;69.60;;;;;;6158133;23;20068;-78
2022/01/24 08:37:01;;;;;;;7.50;4.95;;;10.50;69.60;;;;;;6159983;23;20482;-75
2022/01/24 08:39:27;;;;;;;7.38;5.47;;;10.50;69.60;;;;;;6158916;23;20067;-75
2022/01/24 08:45:41;;;;;;;8.85;5.85;;;10.50;69.50;;;;;;6157338;23;20025;-77
2022/01/24 08:47:07;;;;;;;7.43;5.63;;;10.60;69.60;;;;;;6157719;23;20088;-77
2022/01/24 08:49:33;;;;;;;7.60;5.72;;;10.60;69.50;;;;;;6158805;23;20017;-75
2022/01/24 08:52:00;;;;;;;6.85;5.72;;;10.60;69.50;;;;;;6157092;23;20017;-76
2022/01/24 08:54:26;;;;;;;7.85;5.07;;;10.60;69.50;;;;;;6158037;23;20312;-77
2022/01/24 08:56:52;;;;;;;7.40;5.70;;;10.60;69.40;;;;;;6159272;23;20039;-77
2022/01/24 08:59:18;;;;;;;7.10;5.32;;;10.60;69.50;;;;;;6158645;23;20447;-76
2022/01/24 09:01:46;;;;;;;5.88;5.03;;;10.60;69.50;;;;;;6159294;23;20057;-76
2022/01/24 09:04:12;;;;;;;7.93;5.50;;;10.60;69.40;;;;;;6157579;23;20042;-77
2022/01/24 09:06:38;;;;;;;7.60;5.50;;;10.60;69.50;;;;;;6157161;23;20029;-76
2022/01/24 09:09:04;;;;;;;6.88;5.30;;;10.60;69.40;;;;;;6158815;23;20025;-78
2022/01/24 09:11:34;;;;;;;8.50;5.88;;;10.60;69.50;;;;;;6158815;23;20017;-76
2022/01/24 09:14:00;;;;;;;8.45;5.88;;;10.60;69.40;;;;;;6159261;23;20029;-75
2022/01/24 09:16:26;;;;;;;8.57;6.03;;;10.60;69.40;;;;;;6157130;23;20025;-77
2022/01/24 09:18:52;;;;;;;7.53;5.47;;;10.60;69.40;;;;;;6157645;23;20017;-77
2022/01/24 09:21:18;;;;;;;7.75;5.53;;;10.60;69.40;;;;;;6157899;23;20029;-75
2022/01/24 09:23:44;;;;;;;8.52;5.90;;;10.50;69.30;;;;;;6158502;23;20014;-75
2022/01/24 09:26:10;;;;;;;8.15;6.00;;;10.50;69.40;;;;;;6158082;23;20028;-75
2022/01/24 09:28:36;;;;;;;8.48;6.15;;;10.50;69.30;;;;;;6158603;23;20053;-76
2022/01/24 09:31:01;;;;;;;9.80;6.60;;;10.60;69.40;;;;;;6157986;23;20021;-75
2022/01/24 09:33:27;;;;;;;8.82;6.32;;;10.50;69.40;;;;;;6158692;23;20025;-75
2022/01/24 09:35:58;;;;;;;8.85;6.22;;;10.50;69.30;;;;;;6159424;23;20014;-78
2022/01/24 09:38:29;;;;;;;7.95;6.18;;;10.50;69.90;;;;;;6158270;23;20029;-77
2022/01/24 09:40:56;;;;;;;9.82;7.18;;;10.50;69.40;;;;;;6158247;23;20152;-75
2022/01/24 09:43:23;;;;;;;9.10;6.63;;;10.60;69.40;;;;;;6157386;23;20036;-76
2022/01/24 09:45:48;;;;;;;9.07;6.30;;;10.50;69.30;;;;;;6156699;23;20017;-77
2022/01/24 09:48:16;;;;;;;9.70;6.65;;;10.50;69.20;;;;;;6158141;23;20084;-75
2022/01/24 09:50:43;;;;;;;9.57;6.03;;;10.50;69.20;;;;;;6158185;23;20083;-77
2022/01/24 09:53:09;;;;;;;9.60;7.00;;;10.50;69.30;;;;;;6159237;23;20024;-77
2022/01/24 09:55:35;;;;;;;9.75;6.65;;;10.50;69.20;;;;;;6157792;23;20410;-76
2022/01/24 09:58:00;;;;;;;8.95;6.43;;;10.50;69.20;;;;;;6158282;23;20096;-76
2022/01/24 10:00:27;;;;;;;9.63;6.90;;;10.50;69.20;;;;;;6157540;23;20415;-75
2022/01/24 10:02:55;;;;;;;8.85;6.15;;;10.50;69.20;;;;;;6157744;23;20018;-75
2022/01/24 10:05:25;;;;;;;9.85;7.20;;;10.50;69.10;;;;;;6157289;23;20440;-77
2022/01/24 10:07:52;;;;;;;9.32;6.75;;;10.60;69.20;;;;;;6156931;23;20488;-77
2022/01/24 10:10:44;;;;;;;9.27;6.45;;;10.50;69.20;;;;;;6158319;23;20072;-77
2022/01/24 10:19:17;;;;;;;10.20;7.22;;;10.50;69.20;;;;;;6158254;23;20495;-77
2022/01/24 10:21:49;;;;;;;10.57;6.80;;;10.50;69.10;;;;;;6157240;23;20096;-77
2022/01/24 10:24:41;;;;;;;10.07;7.18;;;10.50;69.10;;;;;;6156768;23;20277;-75
2022/01/24 10:27:17;;;;;;;10.25;7.28;;;10.50;69.10;;;;;;6156461;23;20129;-77
2022/01/24 10:29:52;;;;;;;11.15;8.15;;;10.50;69.10;;;;;;6157974;23;20022;-77
2022/01/24 10:32:49;;;;;;;10.32;7.43;;;10.50;69.10;;;;;;6156394;23;20092;-75
2022/01/24 10:35:42;;;;;;;12.48;7.65;;;10.50;69.10;;;;;;6156668;23;20415;-77
2022/01/24 10:38:44;;;;;;;10.70;7.57;;;10.50;69.00;;;;;;6157973;23;20026;-75
2022/01/24 10:43:45;;;;;;;12.25;7.75;;;10.50;69.10;;;;;;6156670;23;20021;-76
2022/01/24 10:46:11;;;;;;;11.05;7.63;;;10.50;69.10;;;;;;6156679;23;20018;-77
2022/01/24 10:48:44;;;;;;;11.27;7.57;;;10.50;69.10;;;;;;6158239;23;20475;-77
2022/01/24 10:51:20;;;;;;;11.52;8.70;;;10.50;69.10;;;;;;6158076;23;20080;-77
2022/01/24 10:53:55;;;;;;;12.32;8.27;;;10.60;69.10;;;;;;6157666;23;20315;-76
2022/01/24 10:56:25;;;;;;;12.55;8.52;;;10.60;69.00;;;;;;6156353;23;20022;-78
2022/01/24 10:58:51;;;;;;;11.55;8.18;;;10.50;68.90;;;;;;6157019;23;20025;-76
2022/01/24 11:01:24;;;;;;;10.60;8.13;;;10.50;68.90;;;;;;6156349;23;20021;-77
2022/01/24 11:04:08;;;;;;;11.25;8.15;;;10.50;69.00;;;;;;6156888;23;20041;-75
2022/01/24 11:06:39;;;;;;;11.10;8.00;;;10.50;68.90;;;;;;6157444;23;20434;-75
2022/01/24 11:09:25;;;;;;;11.45;8.15;;;10.50;69.00;;;;;;6157008;23;20411;-75
2022/01/24 11:12:10;;;;;;;11.07;7.65;;;10.60;69.00;;;;;;6156675;23;20407;-77
2022/01/24 11:14:38;;;;;;;10.50;7.97;;;10.50;68.90;;;;;;6157589;23;20100;-76
2022/01/24 11:17:06;;;;;;;11.93;8.05;;;10.50;69.00;;;;;;6157797;23;20052;-76
2022/01/24 11:19:45;;;;;;;10.55;7.70;;;10.60;69.00;;;;;;6157461;23;20053;-78
2022/01/24 11:22:33;;;;;;;12.98;8.82;;;10.60;69.00;;;;;;6157629;23;20064;-75
2022/01/24 11:25:08;;;;;;;11.85;8.95;;;10.60;68.90;;;;;;6158123;23;20026;-77
2022/01/24 11:27:35;;;;;;;12.68;9.48;;;10.60;68.90;;;;;;6157735;23;20049;-76
2022/01/24 11:30:07;;;;;;;11.32;8.73;;;10.60;68.90;;;;;;6159429;23;20018;-75
2022/01/24 11:32:53;;;;;;;11.30;8.43;;;10.60;68.90;;;;;;6158409;23;20491;-76
2022/01/24 11:35:35;;;;;;;11.82;8.88;;;10.60;68.80;;;;;;6158518;23;20061;-77
2022/01/24 11:38:01;;;;;;;13.82;8.98;;;10.60;68.90;;;;;;6158606;23;20416;-77
2022/01/24 11:40:44;;;;;;;13.45;9.27;;;10.60;69.00;;;;;;6159517;23;20029;-77
2022/01/24 11:43:37;;;;;;;12.30;9.05;;;10.60;68.80;;;;;;6158196;23;20412;-77
2022/01/24 11:46:47;;;;;;;12.45;8.70;;;10.60;68.80;;;;;;6157850;23;20028;-78
2022/01/24 11:49:22;;;;;;;11.82;8.60;;;10.60;68.80;;;;;;6159428;23;20289;-78
2022/01/24 11:51:51;;;;;;;12.55;9.35;;;10.60;68.90;;;;;;6159419;23;20315;-76
2022/01/24 11:54:43;;;;;;;14.10;10.18;;;10.60;68.90;;;;;;6158203;23;20018;-76
2022/01/24 11:57:24;;;;;;;12.73;9.32;;;10.60;68.90;;;;;;6159733;23;20137;-77
2022/01/24 12:00:05;;;;;;;12.50;9.38;;;10.60;69.00;;;;;;6158043;23;20028;-77
2022/01/24 12:02:45;;;;;;;16.52;9.00;;;10.60;69.00;;;;;;6158210;23;20021;-75
2022/01/24 12:05:29;;;;;;;13.13;9.32;;;10.50;68.90;;;;;;6158176;23;20028;-75
2022/01/24 12:07:58;;;;;;;12.52;9.55;;;10.60;68.80;;;;;;6158445;23;20022;-76
2022/01/24 12:10:24;;;;;;;15.50;11.07;;;10.60;68.90;;;;;;6159521;23;20427;-76
2022/01/24 12:13:03;;;;;;;13.30;10.15;;;10.50;68.80;;;;;;6157896;23;20018;-75
2022/01/24 12:15:52;;;;;;;12.93;9.75;;;10.60;68.80;;;;;;6159184;23;20022;-75
2022/01/24 12:18:27;;;;;;;14.10;10.55;;;10.60;68.70;;;;;;6159053;23;20092;-77
2022/01/24 12:20:57;;;;;;;14.02;10.30;;;10.60;68.80;;;;;;6157985;23;20412;-77
2022/01/24 12:23:25;;;;;;;13.90;10.38;;;10.60;68.80;;;;;;6159307;23;20018;-76
2022/01/24 12:25:57;;;;;;;14.60;11.20;;;10.60;68.80;;;;;;6159050;23;20315;-76
2022/01/24 12:28:27;;;;;;;14.38;10.75;;;10.50;68.80;;;;;;6159154;23;20021;-77
2022/01/24 12:31:04;;;;;;;14.82;10.55;;;10.60;68.80;;;;;;6158469;23;20329;-75
2022/01/24 12:33:33;;;;;;;14.75;10.88;;;10.60;68.70;;;;;;6158977;23;20047;-76
2022/01/24 12:36:01;;;;;;;13.55;10.13;;;10.60;68.80;;;;;;6158443;23;20025;-77
2022/01/24 12:38:42;;;;;;;15.82;11.48;;;10.60;68.70;;;;;;6158753;23;20028;-76
2022/01/24 12:41:17;;;;;;;14.82;11.35;;;10.60;68.70;;;;;;6158559;23;20485;-78
2022/01/24 12:43:57;;;;;;;15.20;11.02;;;10.60;68.70;;;;;;6157225;23;20053;-75
2022/01/24 12:46:26;;;;;;;15.13;11.70;;;10.50;68.70;;;;;;6133406;23;20049;-76
2022/01/24 12:48:55;;;;;;;16.85;11.90;;;10.50;68.70;;;;;;6133069;23;20440;-77
2022/01/24 12:51:23;;;;;;;16.08;11.68;;;10.60;68.70;;;;;;6158640;23;20036;-76
2022/01/24 12:53:50;;;;;;;13.82;10.38;;;10.60;68.70;;;;;;6159218;23;20025;-76
2022/01/24 12:56:18;;;;;;;16.95;11.95;;;10.60;68.70;;;;;;6159746;23;20366;-77
2022/01/24 12:58:49;;;;;;;16.90;12.55;;;10.60;68.60;;;;;;6157284;23;20014;-77
2022/01/24 13:01:24;;;;;;;14.80;11.60;;;10.60;68.60;;;;;;6157469;23;20462;-75
2022/01/24 13:03:58;;;;;;;13.80;11.25;;;10.60;68.50;;;;;;6158520;23;20096;-77
2022/01/24 13:06:29;;;;;;;13.93;10.90;;;10.60;68.50;;;;;;6157210;23;20032;-78
2022/01/24 13:09:13;;;;;;;15.30;11.85;;;10.60;68.30;;;;;;6157889;23;20028;-77
2022/01/24 13:11:52;;;;;;;15.82;11.88;;;10.60;68.40;;;;;;6158520;23;20021;-77
2022/01/24 13:14:24;;;;;;;15.93;12.30;;;10.60;68.50;;;;;;6133069;23;20109;-75
2022/01/24 13:22:39;;;;;;;16.73;12.85;;;10.60;68.60;;;;;;6157150;23;20040;-76
2022/01/24 13:25:32;;;;;;;16.67;12.25;;;10.60;68.60;;;;;;6158986;23;20018;-79
2022/01/24 13:28:14;;;;;;;16.67;11.85;;;10.60;68.70;;;;;;6151246;23;20018;-78
2022/01/24 13:30:42;;;;;;;16.25;12.50;;;10.60;68.50;;;;;;6156983;23;20370;-76
2022/01/24 13:33:12;;;;;;;17.42;13.55;;;10.50;68.60;;;;;;6158563;23;20029;-76
2022/01/24 13:35:50;;;;;;;16.33;13.63;;;10.50;68.60;;;;;;6132250;23;20026;-76
2022/01/24 13:38:19;;;;;;;15.45;12.85;;;10.50;68.40;;;;;;6133001;23;20040;-77
2022/01/24 13:40:56;;;;;;;16.40;12.80;;;10.50;68.50;;;;;;6158154;23;20021;-76
2022/01/24 13:43:35;;;;;;;15.27;12.48;;;10.50;68.60;;;;;;6158808;23;20028;-78
2022/01/24 13:46:13;;;;;;;17.52;12.38;;;10.50;68.60;;;;;;6157632;23;20431;-78
2022/01/24 13:48:40;;;;;;;15.65;12.20;;;10.50;68.60;;;;;;6157283;23;20355;-77
2022/01/24 13:51:06;;;;;;;17.33;13.00;;;10.50;68.50;;;;;;6156426;23;20320;-77
2022/01/24 13:53:32;;;;;;;16.25;13.15;;;10.50;68.60;;;;;;6156783;23;20435;-78
2022/01/24 13:55:59;;;;;;;14.80;11.95;;;10.50;68.60;;;;;;6159133;23;20092;-78
2022/01/24 13:58:27;;;;;;;15.05;12.05;;;10.50;68.60;;;;;;6157264;23;20053;-78
2022/01/24 14:00:57;;;;;;;16.48;12.10;;;10.50;68.70;;;;;;6132588;23;20025;-78
2022/01/24 14:03:23;;;;;;;17.00;13.68;;;10.50;68.70;;;;;;6157676;23;20009;-77
2022/01/24 14:05:48;;;;;;;18.17;13.77;;;10.50;68.50;;;;;;6132496;23;20035;-79
2022/01/24 14:08:16;;;;;;;17.58;14.07;;;10.50;68.60;;;;;;6158200;23;20378;-79
2022/01/24 14:10:43;;;;;;;16.10;13.30;;;10.50;68.60;;;;;;6157231;23;20021;-76
2022/01/24 14:13:09;;;;;;;19.90;13.73;;;10.50;68.60;;;;;;6157979;23;20013;-77
2022/01/24 14:15:49;;;;;;;17.08;14.10;;;10.50;68.50;;;;;;6158623;23;20277;-77
2022/01/24 14:20:50;;;;;;;17.35;14.02;;;10.50;68.40;;;;;;6157711;23;20017;-77
2022/01/24 14:23:34;;;;;;;15.88;13.75;;;10.50;68.40;;;;;;6157867;23;20021;-76
2022/01/24 14:26:11;;;;;;;16.00;13.05;;;10.50;68.40;;;;;;6133056;23;20024;-78
2022/01/24 14:28:37;;;;;;;17.95;13.88;;;10.50;68.40;;;;;;6157970;23;20028;-79
2022/01/24 14:31:10;;;;;;;17.63;13.85;;;10.50;68.40;;;;;;6157057;23;20018;-78
2022/01/24 14:33:37;;;;;;;18.55;14.10;;;10.50;68.40;;;;;;6156785;23;20095;-77
2022/01/24 14:36:12;;;;;;;18.77;14.27;;;10.50;68.40;;;;;;6157955;23;20025;-79
2022/01/24 14:38:42;;;;;;;15.98;13.30;;;10.50;68.40;;;;;;6132236;23;20017;-77
2022/01/24 14:41:11;;;;;;;16.05;13.82;;;10.50;68.40;;;;;;6157030;23;20018;-76